Happy Valentine's Day! 

Flight Track Log - Related Links

Times and Time Zones

All times are in EDT time to prevent confusion due to time zone crossing. See the N364AC flight status page for this flight to view local times or setup timezone preferences in your user account.


Time Position Orientation Groundspeed Altitude Reporting Facility
EDT Latitude Longitude Course Direction KTS MPH feet Rate Location/Type
Fri 04:24:51 PM 34.2167 -83.9500 241° Southwest 130 150 4,000  Level Atlanta TRACON
Fri 04:25:51 PM 34.1833 -84.0000 231° Southwest 138 159 3,900 -50 Descending Atlanta TRACON
Fri 04:26:51 PM 34.1833 -84.0333 270° West 134 154 3,900  Level Atlanta TRACON
Fri 04:27:45 PM 34.1667 -84.0667 239° Southwest 129 148 3,900  Level Atlanta TRACON
Fri 04:28:45 PM 34.1500 -84.1167 248° West 119 137 3,900  Level Atlanta TRACON
Fri 04:29:45 PM 34.1500 -84.1500 270° West 133 153 3,900  Level Atlanta TRACON
Fri 04:30:51 PM 34.1333 -84.2000 248° West 123 142 3,900  Level Atlanta TRACON
Fri 04:31:57 PM 34.1167 -84.2333 239° Southwest 123 142 3,900  Level Atlanta TRACON
Fri 04:32:52 PM 34.1167 -84.2833 270° West 142 163 3,900  Level Atlanta TRACON
Fri 04:33:57 PM 34.1000 -84.3333 248° West 135 155 3,900  Level Atlanta TRACON
Fri 04:35:03 PM 34.0833 -84.3667 239° Southwest 123 142 3,900  Level Atlanta TRACON
Fri 04:35:51 PM 34.0833 -84.4000 270° West 134 154 3,900  Level Atlanta TRACON
Fri 04:36:57 PM 34.0667 -84.4500 248° West 140 161 3,900  Level Atlanta TRACON
Fri 04:37:51 PM 34.0500 -84.5000 248° West 133 153 3,900  Level Atlanta TRACON
Fri 04:38:52 PM 34.0500 -84.5333 270° West 133 153 3,900  Level Atlanta TRACON
Fri 04:39:57 PM 34.0333 -84.5833 248° West 136 157 3,900  Level Atlanta TRACON
Fri 04:40:51 PM 34.0167 -84.6167 239° Southwest 136 157 3,900  Level Atlanta TRACON
Fri 04:41:57 PM 34.0000 -84.6667 248° West 137 158 3,900  Level Atlanta TRACON
Fri 04:42:57 PM 33.9833 -84.7167 248° West 139 160 3,900 50 Level Atlanta TRACON
Fri 04:43:58 PM 33.9500 -84.7500 220° Southwest 139 160 4,000  Climbing Atlanta TRACON
Fri 04:44:58 PM 33.9333 -84.7833 239° Southwest 158 182 3,900  Descending Atlanta TRACON
Fri 04:45:58 PM 33.9000 -84.8167 220° Southwest 143 165 4,000 50 Climbing Atlanta TRACON
Fri 04:46:58 PM 33.8833 -84.8500 239° Southwest 144 166 4,000 -53 Level Atlanta TRACON
Fri 04:47:52 PM 33.8500 -84.8833 220° Southwest 148 170 3,900 -211 Descending Atlanta TRACON
Fri 04:48:52 PM 33.8167 -84.9167 220° Southwest 152 175 3,600 -300 Descending Atlanta TRACON

Login

Don't have an account? Register now (free) for customized features, flight alerts, and more!